sensor_id;sensor_type;location;lat;lon;timestamp;P1;durP1;ratioP1;P2;durP2;ratioP2
21158;SDS011;10737;45.436;4.390;2024-01-15T00:01:13;23.55;;;16.85;;
21158;SDS011;10737;45.436;4.390;2024-01-15T00:06:17;29.02;;;17.02;;
21158;SDS011;10737;45.436;4.390;2024-01-15T00:11:20;24.42;;;16.52;;
21158;SDS011;10737;45.436;4.390;2024-01-15T00:16:25;22.52;;;15.52;;
21158;SDS011;10737;45.436;4.390;2024-01-15T00:21:28;21.35;;;15.93;;
21158;SDS011;10737;45.436;4.390;2024-01-15T00:26:32;28.23;;;16.65;;
21158;SDS011;10737;45.436;4.390;2024-01-15T00:31:36;26.77;;;16.75;;
21158;SDS011;10737;45.436;4.390;2024-01-15T00:36:39;20.70;;;15.65;;
21158;SDS011;10737;45.436;4.390;2024-01-15T00:41:43;21.55;;;15.77;;
21158;SDS011;10737;45.436;4.390;2024-01-15T00:46:47;17.45;;;15.05;;
21158;SDS011;10737;45.436;4.390;2024-01-15T00:51:50;22.70;;;17.63;;
21158;SDS011;10737;45.436;4.390;2024-01-15T00:56:54;20.60;;;16.80;;
21158;SDS011;10737;45.436;4.390;2024-01-15T01:01:59;24.13;;;16.17;;
21158;SDS011;10737;45.436;4.390;2024-01-15T01:07:02;20.25;;;15.35;;
21158;SDS011;10737;45.436;4.390;2024-01-15T01:12:06;19.77;;;15.43;;
21158;SDS011;10737;45.436;4.390;2024-01-15T01:17:10;19.02;;;15.27;;
21158;SDS011;10737;45.436;4.390;2024-01-15T01:22:14;17.65;;;14.20;;
21158;SDS011;10737;45.436;4.390;2024-01-15T01:27:17;18.75;;;14.60;;
21158;SDS011;10737;45.436;4.390;2024-01-15T01:32:22;14.85;;;11.45;;
21158;SDS011;10737;45.436;4.390;2024-01-15T01:37:25;15.88;;;13.23;;
21158;SDS011;10737;45.436;4.390;2024-01-15T01:42:28;15.73;;;12.50;;
21158;SDS011;10737;45.436;4.390;2024-01-15T01:47:33;50.22;;;21.85;;
21158;SDS011;10737;45.436;4.390;2024-01-15T01:52:37;36.45;;;18.05;;
21158;SDS011;10737;45.436;4.390;2024-01-15T01:57:40;24.02;;;15.90;;
21158;SDS011;10737;45.436;4.390;2024-01-15T02:02:45;22.08;;;15.23;;
21158;SDS011;10737;45.436;4.390;2024-01-15T02:07:49;26.98;;;15.38;;
21158;SDS011;10737;45.436;4.390;2024-01-15T02:12:52;29.98;;;16.10;;
21158;SDS011;10737;45.436;4.390;2024-01-15T02:17:57;18.45;;;13.05;;
21158;SDS011;10737;45.436;4.390;2024-01-15T02:23:06;13.73;;;11.27;;
21158;SDS011;10737;45.436;4.390;2024-01-15T02:28:10;15.73;;;11.43;;
21158;SDS011;10737;45.436;4.390;2024-01-15T02:33:14;17.40;;;11.93;;
21158;SDS011;10737;45.436;4.390;2024-01-15T02:38:19;16.30;;;11.65;;
21158;SDS011;10737;45.436;4.390;2024-01-15T02:43:22;14.63;;;11.38;;
21158;SDS011;10737;45.436;4.390;2024-01-15T02:48:25;15.05;;;11.00;;
21158;SDS011;10737;45.436;4.390;2024-01-15T02:53:30;9.88;;;8.50;;
21158;SDS011;10737;45.436;4.390;2024-01-15T02:58:33;16.83;;;11.50;;
21158;SDS011;10737;45.436;4.390;2024-01-15T03:03:36;15.60;;;11.38;;
21158;SDS011;10737;45.436;4.390;2024-01-15T03:08:41;9.75;;;8.75;;
21158;SDS011;10737;45.436;4.390;2024-01-15T03:13:44;10.80;;;9.70;;
21158;SDS011;10737;45.436;4.390;2024-01-15T03:18:48;11.95;;;9.73;;
21158;SDS011;10737;45.436;4.390;2024-01-15T03:23:52;11.18;;;10.13;;
21158;SDS011;10737;45.436;4.390;2024-01-15T03:28:55;11.85;;;10.60;;
21158;SDS011;10737;45.436;4.390;2024-01-15T03:33:59;22.10;;;16.50;;
21158;SDS011;10737;45.436;4.390;2024-01-15T03:39:03;22.55;;;17.30;;
21158;SDS011;10737;45.436;4.390;2024-01-15T03:44:07;26.00;;;18.75;;
21158;SDS011;10737;45.436;4.390;2024-01-15T03:49:10;23.25;;;18.83;;
21158;SDS011;10737;45.436;4.390;2024-01-15T03:54:15;28.30;;;19.95;;
21158;SDS011;10737;45.436;4.390;2024-01-15T03:59:19;29.55;;;21.27;;
21158;SDS011;10737;45.436;4.390;2024-01-15T04:04:23;29.00;;;21.17;;
21158;SDS011;10737;45.436;4.390;2024-01-15T04:09:27;26.52;;;19.98;;
21158;SDS011;10737;45.436;4.390;2024-01-15T04:14:30;33.50;;;22.35;;
21158;SDS011;10737;45.436;4.390;2024-01-15T04:19:34;28.98;;;21.50;;
21158;SDS011;10737;45.436;4.390;2024-01-15T04:24:38;28.25;;;22.35;;
21158;SDS011;10737;45.436;4.390;2024-01-15T04:29:42;29.95;;;21.58;;
21158;SDS011;10737;45.436;4.390;2024-01-15T04:34:46;29.33;;;21.10;;
21158;SDS011;10737;45.436;4.390;2024-01-15T04:39:51;31.38;;;21.35;;
21158;SDS011;10737;45.436;4.390;2024-01-15T04:44:57;31.35;;;21.48;;
21158;SDS011;10737;45.436;4.390;2024-01-15T04:50:00;30.55;;;22.20;;
21158;SDS011;10737;45.436;4.390;2024-01-15T04:55:05;31.42;;;22.73;;
21158;SDS011;10737;45.436;4.390;2024-01-15T05:00:09;31.27;;;22.15;;
21158;SDS011;10737;45.436;4.390;2024-01-15T05:05:12;32.92;;;22.10;;
21158;SDS011;10737;45.436;4.390;2024-01-15T05:10:17;26.90;;;20.20;;
21158;SDS011;10737;45.436;4.390;2024-01-15T05:15:20;28.35;;;20.88;;
21158;SDS011;10737;45.436;4.390;2024-01-15T05:20:23;28.88;;;20.25;;
21158;SDS011;10737;45.436;4.390;2024-01-15T05:25:28;37.97;;;23.88;;
21158;SDS011;10737;45.436;4.390;2024-01-15T05:30:31;42.38;;;24.65;;
21158;SDS011;10737;45.436;4.390;2024-01-15T05:35:35;27.58;;;21.33;;
21158;SDS011;10737;45.436;4.390;2024-01-15T05:40:39;30.90;;;20.98;;
21158;SDS011;10737;45.436;4.390;2024-01-15T05:45:43;31.13;;;22.48;;
21158;SDS011;10737;45.436;4.390;2024-01-15T05:50:46;32.10;;;23.45;;
21158;SDS011;10737;45.436;4.390;2024-01-15T05:55:51;33.97;;;25.83;;
21158;SDS011;10737;45.436;4.390;2024-01-15T06:00:55;32.10;;;25.30;;
21158;SDS011;10737;45.436;4.390;2024-01-15T06:05:58;32.03;;;23.33;;
21158;SDS011;10737;45.436;4.390;2024-01-15T06:11:02;29.63;;;22.48;;
21158;SDS011;10737;45.436;4.390;2024-01-15T06:16:11;33.97;;;24.10;;
21158;SDS011;10737;45.436;4.390;2024-01-15T06:21:15;33.35;;;25.45;;
21158;SDS011;10737;45.436;4.390;2024-01-15T06:26:20;35.00;;;26.15;;
21158;SDS011;10737;45.436;4.390;2024-01-15T06:31:23;42.42;;;28.08;;
21158;SDS011;10737;45.436;4.390;2024-01-15T06:36:26;37.28;;;25.88;;
21158;SDS011;10737;45.436;4.390;2024-01-15T06:41:31;38.53;;;26.98;;
21158;SDS011;10737;45.436;4.390;2024-01-15T06:46:34;42.53;;;26.60;;
21158;SDS011;10737;45.436;4.390;2024-01-15T06:51:37;38.42;;;27.05;;
21158;SDS011;10737;45.436;4.390;2024-01-15T06:56:42;41.55;;;28.67;;
21158;SDS011;10737;45.436;4.390;2024-01-15T07:01:45;36.13;;;27.52;;
21158;SDS011;10737;45.436;4.390;2024-01-15T07:06:49;36.33;;;25.52;;
21158;SDS011;10737;45.436;4.390;2024-01-15T07:11:53;39.63;;;27.73;;
21158;SDS011;10737;45.436;4.390;2024-01-15T07:16:59;37.15;;;24.15;;
21158;SDS011;10737;45.436;4.390;2024-01-15T07:22:02;33.65;;;23.50;;
21158;SDS011;10737;45.436;4.390;2024-01-15T07:27:07;31.70;;;23.50;;
21158;SDS011;10737;45.436;4.390;2024-01-15T07:32:11;32.10;;;21.45;;
21158;SDS011;10737;45.436;4.390;2024-01-15T07:37:14;26.67;;;18.58;;
21158;SDS011;10737;45.436;4.390;2024-01-15T07:42:19;25.95;;;19.13;;
21158;SDS011;10737;45.436;4.390;2024-01-15T07:47:23;26.90;;;18.88;;
21158;SDS011;10737;45.436;4.390;2024-01-15T07:52:26;26.08;;;17.73;;
21158;SDS011;10737;45.436;4.390;2024-01-15T07:57:31;24.52;;;18.33;;
21158;SDS011;10737;45.436;4.390;2024-01-15T08:02:34;23.63;;;16.48;;
21158;SDS011;10737;45.436;4.390;2024-01-15T08:07:38;21.95;;;16.75;;
21158;SDS011;10737;45.436;4.390;2024-01-15T08:12:42;26.35;;;17.05;;
21158;SDS011;10737;45.436;4.390;2024-01-15T08:17:45;25.45;;;16.83;;
21158;SDS011;10737;45.436;4.390;2024-01-15T08:22:49;24.13;;;18.67;;
21158;SDS011;10737;45.436;4.390;2024-01-15T08:27:53;24.02;;;16.10;;
21158;SDS011;10737;45.436;4.390;2024-01-15T08:32:57;23.05;;;15.30;;
21158;SDS011;10737;45.436;4.390;2024-01-15T08:38:02;19.00;;;14.38;;
21158;SDS011;10737;45.436;4.390;2024-01-15T08:43:07;21.10;;;14.27;;
21158;SDS011;10737;45.436;4.390;2024-01-15T08:48:10;18.10;;;15.15;;
21158;SDS011;10737;45.436;4.390;2024-01-15T08:53:14;27.13;;;18.95;;
21158;SDS011;10737;45.436;4.390;2024-01-15T08:58:18;20.02;;;14.93;;
21158;SDS011;10737;45.436;4.390;2024-01-15T09:03:21;15.95;;;14.25;;
21158;SDS011;10737;45.436;4.390;2024-01-15T09:08:25;20.25;;;15.23;;
21158;SDS011;10737;45.436;4.390;2024-01-15T09:13:31;17.20;;;14.93;;
21158;SDS011;10737;45.436;4.390;2024-01-15T09:18:34;19.58;;;15.10;;
21158;SDS011;10737;45.436;4.390;2024-01-15T09:23:37;23.33;;;16.85;;
21158;SDS011;10737;45.436;4.390;2024-01-15T09:28:42;19.30;;;16.95;;
21158;SDS011;10737;45.436;4.390;2024-01-15T09:33:45;22.13;;;17.95;;
21158;SDS011;10737;45.436;4.390;2024-01-15T09:38:49;19.88;;;15.98;;
21158;SDS011;10737;45.436;4.390;2024-01-15T09:43:54;20.20;;;15.68;;
21158;SDS011;10737;45.436;4.390;2024-01-15T09:48:57;17.38;;;15.45;;
21158;SDS011;10737;45.436;4.390;2024-01-15T09:54:01;18.83;;;14.38;;
21158;SDS011;10737;45.436;4.390;2024-01-15T09:59:05;16.95;;;14.90;;
21158;SDS011;10737;45.436;4.390;2024-01-15T10:04:09;18.13;;;16.13;;
21158;SDS011;10737;45.436;4.390;2024-01-15T10:09:13;18.48;;;14.48;;
21158;SDS011;10737;45.436;4.390;2024-01-15T10:14:19;13.25;;;11.68;;
21158;SDS011;10737;45.436;4.390;2024-01-15T10:19:22;16.80;;;13.45;;
21158;SDS011;10737;45.436;4.390;2024-01-15T10:24:26;15.65;;;12.77;;
21158;SDS011;10737;45.436;4.390;2024-01-15T10:29:32;19.90;;;13.82;;
21158;SDS011;10737;45.436;4.390;2024-01-15T10:34:37;16.27;;;13.40;;
21158;SDS011;10737;45.436;4.390;2024-01-15T10:39:40;17.05;;;13.57;;
21158;SDS011;10737;45.436;4.390;2024-01-15T10:44:46;15.68;;;13.50;;
21158;SDS011;10737;45.436;4.390;2024-01-15T10:49:49;14.90;;;13.35;;
21158;SDS011;10737;45.436;4.390;2024-01-15T10:54:53;21.50;;;16.35;;
21158;SDS011;10737;45.436;4.390;2024-01-15T10:59:58;21.85;;;18.73;;
21158;SDS011;10737;45.436;4.390;2024-01-15T11:05:02;20.27;;;18.00;;
21158;SDS011;10737;45.436;4.390;2024-01-15T11:10:06;19.70;;;16.35;;
21158;SDS011;10737;45.436;4.390;2024-01-15T11:15:15;18.38;;;15.93;;
21158;SDS011;10737;45.436;4.390;2024-01-15T11:20:22;24.17;;;19.40;;
21158;SDS011;10737;45.436;4.390;2024-01-15T11:25:34;48.38;;;35.03;;
21158;SDS011;10737;45.436;4.390;2024-01-15T11:30:39;52.85;;;37.83;;
21158;SDS011;10737;45.436;4.390;2024-01-15T11:35:48;53.40;;;35.65;;
21158;SDS011;10737;45.436;4.390;2024-01-15T11:40:51;54.65;;;37.95;;
21158;SDS011;10737;45.436;4.390;2024-01-15T11:45:56;55.40;;;40.35;;
21158;SDS011;10737;45.436;4.390;2024-01-15T11:50:59;56.28;;;37.53;;
21158;SDS011;10737;45.436;4.390;2024-01-15T11:56:03;61.03;;;40.90;;
21158;SDS011;10737;45.436;4.390;2024-01-15T12:01:11;55.78;;;40.67;;
21158;SDS011;10737;45.436;4.390;2024-01-15T12:06:15;58.47;;;40.90;;
21158;SDS011;10737;45.436;4.390;2024-01-15T12:11:18;54.05;;;41.13;;
21158;SDS011;10737;45.436;4.390;2024-01-15T12:16:24;55.53;;;38.67;;
21158;SDS011;10737;45.436;4.390;2024-01-15T12:21:27;55.35;;;40.42;;
21158;SDS011;10737;45.436;4.390;2024-01-15T12:26:31;52.67;;;38.20;;
21158;SDS011;10737;45.436;4.390;2024-01-15T12:31:35;51.80;;;39.80;;
21158;SDS011;10737;45.436;4.390;2024-01-15T12:36:39;48.75;;;37.10;;
21158;SDS011;10737;45.436;4.390;2024-01-15T12:41:44;49.58;;;37.90;;
21158;SDS011;10737;45.436;4.390;2024-01-15T12:46:49;51.20;;;35.85;;
21158;SDS011;10737;45.436;4.390;2024-01-15T12:51:53;50.58;;;36.63;;
21158;SDS011;10737;45.436;4.390;2024-01-15T12:56:56;50.30;;;37.20;;
21158;SDS011;10737;45.436;4.390;2024-01-15T13:02:01;48.00;;;36.53;;
21158;SDS011;10737;45.436;4.390;2024-01-15T13:07:04;48.80;;;37.15;;
21158;SDS011;10737;45.436;4.390;2024-01-15T13:12:08;56.17;;;38.78;;
21158;SDS011;10737;45.436;4.390;2024-01-15T13:17:13;60.15;;;40.90;;
21158;SDS011;10737;45.436;4.390;2024-01-15T13:22:19;54.40;;;36.53;;
21158;SDS011;10737;45.436;4.390;2024-01-15T13:27:23;54.70;;;37.13;;
21158;SDS011;10737;45.436;4.390;2024-01-15T13:32:28;75.97;;;50.78;;
21158;SDS011;10737;45.436;4.390;2024-01-15T13:37:32;55.35;;;39.42;;
21158;SDS011;10737;45.436;4.390;2024-01-15T13:42:35;56.75;;;39.97;;
21158;SDS011;10737;45.436;4.390;2024-01-15T13:47:41;59.88;;;40.47;;
21158;SDS011;10737;45.436;4.390;2024-01-15T13:52:45;50.95;;;36.88;;
21158;SDS011;10737;45.436;4.390;2024-01-15T13:57:48;52.17;;;35.80;;
21158;SDS011;10737;45.436;4.390;2024-01-15T14:02:53;53.78;;;39.30;;
21158;SDS011;10737;45.436;4.390;2024-01-15T14:07:56;51.55;;;37.78;;
21158;SDS011;10737;45.436;4.390;2024-01-15T14:13:00;48.10;;;36.70;;
21158;SDS011;10737;45.436;4.390;2024-01-15T14:18:05;48.47;;;37.65;;
21158;SDS011;10737;45.436;4.390;2024-01-15T14:23:09;43.58;;;33.88;;
21158;SDS011;10737;45.436;4.390;2024-01-15T14:28:13;42.60;;;33.40;;
21158;SDS011;10737;45.436;4.390;2024-01-15T14:33:18;48.38;;;36.45;;
21158;SDS011;10737;45.436;4.390;2024-01-15T14:38:22;39.65;;;30.98;;
21158;SDS011;10737;45.436;4.390;2024-01-15T14:43:26;47.20;;;34.65;;
21158;SDS011;10737;45.436;4.390;2024-01-15T14:48:30;45.80;;;33.03;;
21158;SDS011;10737;45.436;4.390;2024-01-15T14:53:33;49.00;;;35.47;;
21158;SDS011;10737;45.436;4.390;2024-01-15T14:58:37;45.55;;;31.13;;
21158;SDS011;10737;45.436;4.390;2024-01-15T15:03:42;45.42;;;35.10;;
21158;SDS011;10737;45.436;4.390;2024-01-15T15:08:46;46.47;;;33.50;;
21158;SDS011;10737;45.436;4.390;2024-01-15T15:13:49;46.78;;;31.95;;
21158;SDS011;10737;45.436;4.390;2024-01-15T15:18:54;43.63;;;31.20;;
21158;SDS011;10737;45.436;4.390;2024-01-15T15:23:57;46.30;;;32.70;;
21158;SDS011;10737;45.436;4.390;2024-01-15T15:29:02;48.47;;;34.58;;
21158;SDS011;10737;45.436;4.390;2024-01-15T15:34:07;43.63;;;32.75;;
21158;SDS011;10737;45.436;4.390;2024-01-15T15:39:10;45.60;;;32.10;;
21158;SDS011;10737;45.436;4.390;2024-01-15T15:44:17;49.20;;;32.08;;
21158;SDS011;10737;45.436;4.390;2024-01-15T15:49:22;48.10;;;34.33;;
21158;SDS011;10737;45.436;4.390;2024-01-15T15:54:25;52.28;;;33.55;;
21158;SDS011;10737;45.436;4.390;2024-01-15T15:59:29;48.40;;;33.17;;
21158;SDS011;10737;45.436;4.390;2024-01-15T16:04:34;51.42;;;34.97;;
21158;SDS011;10737;45.436;4.390;2024-01-15T16:09:37;53.75;;;35.00;;
21158;SDS011;10737;45.436;4.390;2024-01-15T16:14:41;47.63;;;32.20;;
21158;SDS011;10737;45.436;4.390;2024-01-15T16:19:48;51.20;;;33.90;;
21158;SDS011;10737;45.436;4.390;2024-01-15T16:25:11;72.07;;;47.35;;
21158;SDS011;10737;45.436;4.390;2024-01-15T16:30:15;54.40;;;36.55;;
21158;SDS011;10737;45.436;4.390;2024-01-15T16:35:41;54.13;;;34.17;;
21158;SDS011;10737;45.436;4.390;2024-01-15T16:40:44;45.40;;;32.28;;
21158;SDS011;10737;45.436;4.390;2024-01-15T16:45:48;50.20;;;30.75;;
21158;SDS011;10737;45.436;4.390;2024-01-15T16:50:52;37.15;;;26.20;;
21158;SDS011;10737;45.436;4.390;2024-01-15T16:56:14;32.38;;;23.75;;
21158;SDS011;10737;45.436;4.390;2024-01-15T17:01:36;24.85;;;18.88;;
21158;SDS011;10737;45.436;4.390;2024-01-15T17:06:41;20.95;;;16.67;;
21158;SDS011;10737;45.436;4.390;2024-01-15T17:11:44;21.85;;;17.70;;
21158;SDS011;10737;45.436;4.390;2024-01-15T17:16:48;20.55;;;16.70;;
21158;SDS011;10737;45.436;4.390;2024-01-15T17:21:53;16.42;;;13.30;;
21158;SDS011;10737;45.436;4.390;2024-01-15T17:26:56;14.20;;;12.73;;
21158;SDS011;10737;45.436;4.390;2024-01-15T17:32:00;14.13;;;12.73;;
21158;SDS011;10737;45.436;4.390;2024-01-15T17:37:05;15.18;;;12.27;;
21158;SDS011;10737;45.436;4.390;2024-01-15T17:42:08;14.65;;;12.65;;
21158;SDS011;10737;45.436;4.390;2024-01-15T17:47:11;15.13;;;11.77;;
21158;SDS011;10737;45.436;4.390;2024-01-15T17:52:16;14.73;;;12.00;;
21158;SDS011;10737;45.436;4.390;2024-01-15T17:57:20;14.23;;;12.57;;
21158;SDS011;10737;45.436;4.390;2024-01-15T18:02:23;14.00;;;12.50;;
21158;SDS011;10737;45.436;4.390;2024-01-15T18:07:28;14.48;;;12.02;;
21158;SDS011;10737;45.436;4.390;2024-01-15T18:12:32;17.10;;;13.98;;
21158;SDS011;10737;45.436;4.390;2024-01-15T18:17:36;15.57;;;13.65;;
21158;SDS011;10737;45.436;4.390;2024-01-15T18:22:40;13.95;;;11.35;;
21158;SDS011;10737;45.436;4.390;2024-01-15T18:27:44;14.07;;;12.20;;
21158;SDS011;10737;45.436;4.390;2024-01-15T18:33:05;21.10;;;13.95;;
21158;SDS011;10737;45.436;4.390;2024-01-15T18:38:10;13.45;;;11.80;;
21158;SDS011;10737;45.436;4.390;2024-01-15T18:43:14;16.52;;;13.50;;
21158;SDS011;10737;45.436;4.390;2024-01-15T18:48:17;16.70;;;13.82;;
21158;SDS011;10737;45.436;4.390;2024-01-15T18:53:22;16.38;;;13.45;;
21158;SDS011;10737;45.436;4.390;2024-01-15T18:58:26;24.63;;;18.20;;
21158;SDS011;10737;45.436;4.390;2024-01-15T19:03:29;32.38;;;19.67;;
21158;SDS011;10737;45.436;4.390;2024-01-15T19:08:34;29.98;;;19.80;;
21158;SDS011;10737;45.436;4.390;2024-01-15T19:13:37;33.17;;;20.83;;
21158;SDS011;10737;45.436;4.390;2024-01-15T19:18:41;30.02;;;19.63;;
21158;SDS011;10737;45.436;4.390;2024-01-15T19:23:46;38.25;;;22.05;;
21158;SDS011;10737;45.436;4.390;2024-01-15T19:28:49;38.70;;;24.42;;
21158;SDS011;10737;45.436;4.390;2024-01-15T19:34:10;36.28;;;21.17;;
21158;SDS011;10737;45.436;4.390;2024-01-15T19:39:15;31.13;;;19.92;;
21158;SDS011;10737;45.436;4.390;2024-01-15T19:44:18;33.25;;;20.33;;
21158;SDS011;10737;45.436;4.390;2024-01-15T19:49:22;42.90;;;25.58;;
21158;SDS011;10737;45.436;4.390;2024-01-15T19:54:27;38.78;;;24.45;;
21158;SDS011;10737;45.436;4.390;2024-01-15T19:59:30;38.65;;;24.65;;
21158;SDS011;10737;45.436;4.390;2024-01-15T20:04:34;37.10;;;23.13;;
21158;SDS011;10737;45.436;4.390;2024-01-15T20:09:39;40.03;;;23.63;;
21158;SDS011;10737;45.436;4.390;2024-01-15T20:14:43;38.90;;;24.23;;
21158;SDS011;10737;45.436;4.390;2024-01-15T20:20:05;37.45;;;24.30;;
21158;SDS011;10737;45.436;4.390;2024-01-15T20:25:14;37.00;;;24.95;;
21158;SDS011;10737;45.436;4.390;2024-01-15T20:30:18;37.72;;;24.17;;
21158;SDS011;10737;45.436;4.390;2024-01-15T20:35:42;31.98;;;23.05;;
21158;SDS011;10737;45.436;4.390;2024-01-15T20:40:46;37.55;;;24.55;;
21158;SDS011;10737;45.436;4.390;2024-01-15T20:46:08;42.38;;;26.73;;
21158;SDS011;10737;45.436;4.390;2024-01-15T20:51:12;52.03;;;31.63;;
21158;SDS011;10737;45.436;4.390;2024-01-15T20:56:17;53.35;;;29.52;;
21158;SDS011;10737;45.436;4.390;2024-01-15T21:01:20;61.10;;;32.47;;
21158;SDS011;10737;45.436;4.390;2024-01-15T21:06:24;64.95;;;34.72;;
21158;SDS011;10737;45.436;4.390;2024-01-15T21:11:29;56.47;;;29.60;;
21158;SDS011;10737;45.436;4.390;2024-01-15T21:16:32;55.10;;;32.33;;
21158;SDS011;10737;45.436;4.390;2024-01-15T21:21:55;48.05;;;25.52;;
21158;SDS011;10737;45.436;4.390;2024-01-15T21:27:18;37.63;;;23.63;;
21158;SDS011;10737;45.436;4.390;2024-01-15T21:32:23;34.65;;;22.05;;
21158;SDS011;10737;45.436;4.390;2024-01-15T21:37:26;29.85;;;18.80;;
21158;SDS011;10737;45.436;4.390;2024-01-15T21:42:31;32.80;;;19.50;;
21158;SDS011;10737;45.436;4.390;2024-01-15T21:47:36;28.48;;;18.50;;
21158;SDS011;10737;45.436;4.390;2024-01-15T21:52:39;27.67;;;17.73;;
21158;SDS011;10737;45.436;4.390;2024-01-15T21:57:45;32.22;;;18.08;;
21158;SDS011;10737;45.436;4.390;2024-01-15T22:03:07;28.15;;;19.23;;
21158;SDS011;10737;45.436;4.390;2024-01-15T22:08:11;29.38;;;17.20;;
21158;SDS011;10737;45.436;4.390;2024-01-15T22:13:16;25.80;;;17.92;;
21158;SDS011;10737;45.436;4.390;2024-01-15T22:18:41;25.85;;;18.13;;
21158;SDS011;10737;45.436;4.390;2024-01-15T22:23:46;27.73;;;17.52;;
21158;SDS011;10737;45.436;4.390;2024-01-15T22:28:51;25.42;;;17.67;;
21158;SDS011;10737;45.436;4.390;2024-01-15T22:33:55;26.02;;;19.02;;
21158;SDS011;10737;45.436;4.390;2024-01-15T22:38:58;36.00;;;19.88;;
21158;SDS011;10737;45.436;4.390;2024-01-15T22:44:06;26.90;;;17.75;;
21158;SDS011;10737;45.436;4.390;2024-01-15T22:49:10;28.55;;;19.27;;
21158;SDS011;10737;45.436;4.390;2024-01-15T22:54:14;30.13;;;19.40;;
21158;SDS011;10737;45.436;4.390;2024-01-15T22:59:19;38.33;;;22.83;;
21158;SDS011;10737;45.436;4.390;2024-01-15T23:04:23;30.20;;;19.58;;
21158;SDS011;10737;45.436;4.390;2024-01-15T23:09:45;30.38;;;19.60;;
21158;SDS011;10737;45.436;4.390;2024-01-15T23:14:50;31.60;;;19.23;;
21158;SDS011;10737;45.436;4.390;2024-01-15T23:19:54;29.05;;;18.25;;
21158;SDS011;10737;45.436;4.390;2024-01-15T23:24:57;31.55;;;19.67;;
21158;SDS011;10737;45.436;4.390;2024-01-15T23:30:02;29.85;;;19.17;;
21158;SDS011;10737;45.436;4.390;2024-01-15T23:35:06;28.77;;;19.25;;
21158;SDS011;10737;45.436;4.390;2024-01-15T23:40:10;29.55;;;19.48;;
21158;SDS011;10737;45.436;4.390;2024-01-15T23:45:15;21.65;;;16.90;;
21158;SDS011;10737;45.436;4.390;2024-01-15T23:50:19;31.88;;;19.30;;
21158;SDS011;10737;45.436;4.390;2024-01-15T23:55:22;26.88;;;18.83;;
